Time;durP1;ratioP1;P1;durP2;ratioP2;P2;SDS_P1;SDS_P2;PMS_P1;PMS_P2;Temp;Humidity;BMP_temperature;BMP_pressure;BME280_temperature;BME280_humidity;BME280_pressure;Samples;Min_cycle;Max_cycle;Signal;HPM_P1;HPM_P2
2022/09/01 00:01:42;;;;;;;4.12;2.12;;;;;;;8.10;81.71;100332.84;1692653;83;21756;-59
2022/09/01 00:04:14;;;;;;;4.08;2.62;;;;;;;8.13;81.78;100332.30;1700733;83;20938;-59
2022/09/01 00:06:41;;;;;;;5.92;2.35;;;;;;;8.16;81.88;100342.62;1698741;83;20926;-59
2022/09/01 00:09:12;;;;;;;5.65;2.45;;;;;;;8.23;82.03;100337.66;1710562;82;20891;-59
2022/09/01 00:11:42;;;;;;;3.37;2.40;;;;;;;8.30;82.17;100337.88;1712296;83;21002;-59
2022/09/01 00:14:10;;;;;;;6.12;2.42;;;;;;;8.37;82.00;100354.61;1686318;83;21019;-59
2022/09/01 00:16:37;;;;;;;3.87;2.30;;;;;;;8.41;82.55;100353.68;1689654;83;20959;-60
2022/09/01 00:19:05;;;;;;;3.60;1.10;;;;;;;8.74;86.16;100359.22;1690127;84;22086;-60
2022/09/01 00:21:39;;;;;;;2.95;1.00;;;;;;;9.08;87.63;100360.80;1685863;84;21462;-59
2022/09/01 00:24:06;;;;;;;3.02;0.75;;;;;;;9.30;85.62;100360.10;1688929;84;20935;-59
2022/09/01 00:26:33;;;;;;;6.33;1.20;;;;;;;9.44;84.57;100355.33;1694648;83;21617;-59
2022/09/01 00:29:00;;;;;;;1.72;0.90;;;;;;;9.54;84.40;100364.53;1689043;83;20946;-59
2022/09/01 00:31:27;;;;;;;1.40;1.00;;;;;;;9.64;84.28;100352.91;1691269;83;20938;-59
2022/09/01 00:33:55;;;;;;;1.90;0.88;;;;;;;9.74;84.15;100352.59;1691221;83;20962;-59
2022/09/01 00:36:22;;;;;;;1.15;0.65;;;;;;;9.81;84.62;100354.10;1713438;83;21731;-59
2022/09/01 00:38:50;;;;;;;1.40;0.78;;;;;;;9.87;84.46;100348.67;1710400;83;21028;-59
2022/09/01 00:41:21;;;;;;;2.37;1.10;;;;;;;9.94;84.27;100344.95;1670706;84;20962;-59
2022/09/01 00:43:56;;;;;;;2.20;0.90;;;;;;;10.03;84.14;100348.55;1689470;83;20946;-58
2022/09/01 00:46:31;;;;;;;2.50;0.80;;;;;;;10.12;84.13;100343.45;1695061;83;21022;-59
2022/09/01 00:49:08;;;;;;;1.98;0.80;;;;;;;10.24;84.12;100329.11;1697803;83;21029;-59
2022/09/01 00:51:38;;;;;;;1.77;0.72;;;;;;;10.34;84.20;100319.23;1695785;83;21068;-59
2022/09/01 00:54:08;;;;;;;3.22;0.75;;;;;;;10.42;84.28;100315.42;1702910;83;20949;-59
2022/09/01 00:56:38;;;;;;;3.27;0.60;;;;;;;10.49;84.15;100311.66;1713066;82;21492;-59
2022/09/01 00:59:07;;;;;;;1.30;0.60;;;;;;;10.57;84.27;100313.14;1690901;83;21083;-59
2022/09/01 01:01:35;;;;;;;1.85;0.85;;;;;;;10.62;84.21;100320.36;1687124;84;20930;-59
2022/09/01 01:04:05;;;;;;;2.05;0.95;;;;;;;10.65;84.25;100311.09;1687939;83;21940;-59
2022/09/01 01:06:32;;;;;;;2.17;0.82;;;;;;;10.70;84.42;100311.78;1687104;84;21010;-60
2022/09/01 01:09:00;;;;;;;1.85;0.78;;;;;;;10.74;84.41;100309.43;1690029;83;20970;-59
2022/09/01 01:11:30;;;;;;;;;;;;;;;10.77;84.44;100314.53;1701184;83;21029;-59
2022/09/01 01:14:09;;;;;;;1.65;0.90;;;;;;;10.83;84.71;100309.06;1699627;83;20096;-59
2022/09/01 01:16:30;;;;;;;1.95;0.68;;;;;;;10.88;84.65;100304.98;1698956;83;21101;-59
2022/09/01 01:18:57;;;;;;;1.67;0.90;;;;;;;10.91;84.67;100301.78;1701042;83;20985;-59
2022/09/01 01:24:30;;;;;;;4.53;0.90;;;;;;;10.92;84.58;100317.88;1700151;83;21893;-59
2022/09/01 01:26:58;;;;;;;1.00;0.60;;;;;;;10.91;84.71;100307.00;1695459;82;21024;-59
2022/09/01 01:29:28;;;;;;;1.75;0.90;;;;;;;10.95;84.87;100312.52;1708322;82;21002;-59
2022/09/01 01:31:55;;;;;;;0.80;0.55;;;;;;;10.98;84.84;100312.40;1706922;82;20965;-59
2022/09/01 01:34:23;;;;;;;2.67;0.70;;;;;;;10.98;84.90;100311.55;1714487;81;20935;-59
2022/09/01 01:36:50;;;;;;;1.47;0.60;;;;;;;11.00;84.94;100311.48;1693734;84;20967;-60
2022/09/01 01:39:24;;;;;;;0.78;0.60;;;;;;;11.05;85.11;100306.92;1683917;83;21512;-59
2022/09/01 01:41:53;;;;;;;1.87;0.60;;;;;;;11.09;85.15;100316.33;1692788;83;21064;-59
2022/09/01 01:44:26;;;;;;;2.15;0.60;;;;;;;11.11;85.18;100314.52;1697854;83;21304;-59
2022/09/01 01:46:54;;;;;;;0.65;0.60;;;;;;;11.12;85.11;100320.16;1695862;83;21432;-59
2022/09/01 01:49:24;;;;;;;0.40;0.40;;;;;;;11.10;85.09;100320.66;1700288;83;20890;-59
2022/09/01 01:51:54;;;;;;;2.30;0.42;;;;;;;11.06;84.98;100324.30;1694076;83;20966;-60
2022/09/01 01:54:22;;;;;;;1.42;0.60;;;;;;;11.03;85.11;100315.27;1695352;83;21118;-60
2022/09/01 01:56:49;;;;;;;1.42;0.60;;;;;;;10.98;85.04;100312.40;1689665;83;21219;-60
2022/09/01 01:59:18;;;;;;;0.68;0.40;;;;;;;10.91;85.10;100316.15;1694070;83;21718;-59
2022/09/01 02:01:48;;;;;;;0.85;0.40;;;;;;;10.87;85.13;100315.89;1696382;84;20997;-59
2022/09/01 02:04:15;;;;;;;2.35;0.93;;;;;;;10.78;85.04;100313.61;1695964;84;21460;-59
2022/09/01 02:06:46;;;;;;;1.62;0.72;;;;;;;10.70;85.06;100309.17;1696744;83;21885;-59
2022/09/01 02:09:19;;;;;;;1.47;0.47;;;;;;;10.66;85.16;100312.78;1694915;84;21689;-59
2022/09/01 02:11:46;;;;;;;1.27;0.70;;;;;;;10.60;85.20;100307.34;1695576;84;20883;-59
2022/09/01 02:14:14;;;;;;;1.35;0.85;;;;;;;10.56;85.22;100303.59;1671882;84;20922;-59
2022/09/01 02:16:42;;;;;;;5.08;1.42;;;;;;;10.46;85.34;100303.09;1697103;83;21033;-59
2022/09/01 02:19:11;;;;;;;3.87;2.02;;;;;;;10.44;85.43;100303.14;1673311;84;22126;-60
2022/09/01 02:21:43;;;;;;;2.27;1.15;;;;;;;10.39;85.51;100294.66;1693954;84;20982;-59
2022/09/01 02:24:07;;;;;;;1.05;0.57;;;;;;;10.38;85.57;100295.55;1694990;84;20945;-59
2022/09/01 02:26:38;;;;;;;2.35;0.70;;;;;;;10.34;85.47;100296.58;1695790;84;21049;-59
2022/09/01 02:29:16;;;;;;;1.15;0.47;;;;;;;10.35;85.67;100298.73;1698449;83;20973;-59
2022/09/01 02:31:38;;;;;;;2.33;0.50;;;;;;;10.36;85.77;100289.98;1690728;84;21094;-59
2022/09/01 02:34:09;;;;;;;1.77;0.70;;;;;;;10.37;85.77;100291.25;1694006;83;21611;-59
2022/09/01 02:36:46;;;;;;;0.80;0.55;;;;;;;10.38;85.82;100291.63;1694322;83;21067;-59
2022/09/01 02:39:06;;;;;;;3.62;1.30;;;;;;;10.42;85.94;100293.23;1699226;83;21003;-60
2022/09/01 02:41:33;;;;;;;4.17;0.87;;;;;;;10.45;86.06;100297.03;1696909;83;20926;-59
2022/09/01 02:44:01;;;;;;;0.93;0.80;;;;;;;10.51;86.13;100296.80;1695832;83;21913;-59
2022/09/01 02:46:28;;;;;;;1.65;0.70;;;;;;;10.55;86.09;100291.45;1700378;83;20891;-59
2022/09/01 02:48:58;;;;;;;0.82;0.47;;;;;;;10.55;86.01;100300.13;1698183;83;20950;-59
2022/09/01 02:51:24;;;;;;;1.20;0.65;;;;;;;10.59;86.15;100291.29;1698287;84;21415;-58
2022/09/01 02:53:51;;;;;;;1.20;0.60;;;;;;;10.64;86.12;100296.31;1700222;83;20938;-59
2022/09/01 02:56:21;;;;;;;1.55;0.80;;;;;;;10.65;86.11;100296.73;1697847;83;21325;-59
2022/09/01 02:58:49;;;;;;;3.20;0.50;;;;;;;10.64;86.23;100293.70;1694964;83;21436;-59
2022/09/01 03:01:23;;;;;;;;;;;;;;;10.66;86.35;100286.67;1703695;82;20943;-59
2022/09/01 03:03:54;;;;;;;1.20;0.65;;;;;;;10.71;86.61;100280.82;1696264;83;20088;-59
2022/09/01 03:06:22;;;;;;;1.25;0.40;;;;;;;10.76;86.61;100278.89;1697641;83;20910;-59
2022/09/01 03:08:58;;;;;;;1.40;0.68;;;;;;;10.79;86.67;100282.68;1692368;84;21054;-60
2022/09/01 03:11:26;;;;;;;2.33;0.65;;;;;;;10.82;86.68;100279.95;1694051;83;20930;-59
2022/09/01 03:13:52;;;;;;;1.20;0.60;;;;;;;10.85;86.63;100292.88;1705454;83;20943;-59
2022/09/01 03:16:21;;;;;;;2.05;0.60;;;;;;;10.86;86.63;100284.13;1689867;83;20961;-59
2022/09/01 03:18:49;;;;;;;2.80;0.70;;;;;;;10.87;86.81;100284.54;1705689;83;20918;-59
2022/09/01 03:21:15;;;;;;;1.47;0.50;;;;;;;10.92;86.90;100283.91;1702693;83;21067;-59
2022/09/01 03:23:46;;;;;;;0.95;0.53;;;;;;;10.94;86.75;100276.83;1695692;83;21528;-59
2022/09/01 03:26:17;;;;;;;0.72;0.50;;;;;;;10.95;86.89;100278.55;1704648;82;20997;-59
2022/09/01 03:28:43;;;;;;;1.32;0.70;;;;;;;10.95;86.81;100270.72;1702410;83;20966;-59
2022/09/01 03:31:10;;;;;;;1.20;0.50;;;;;;;10.95;86.82;100275.94;1703569;83;21004;-60
2022/09/01 03:33:37;;;;;;;0.78;0.47;;;;;;;10.94;86.88;100279.45;1694470;83;21044;-60
2022/09/01 03:36:05;;;;;;;1.15;0.50;;;;;;;10.97;87.05;100279.32;1709532;81;20974;-60
2022/09/01 03:38:32;;;;;;;3.65;1.62;;;;;;;10.98;86.99;100279.73;1687917;84;21521;-59
2022/09/01 03:41:04;;;;;;;2.00;0.62;;;;;;;11.01;87.16;100277.89;1702250;83;20973;-59
2022/09/01 03:43:33;;;;;;;1.20;0.60;;;;;;;11.06;87.16;100292.94;1694723;83;20927;-60
2022/09/01 03:46:00;;;;;;;0.62;0.50;;;;;;;11.04;87.08;100289.09;1696838;84;21050;-59
2022/09/01 03:48:31;;;;;;;1.10;0.70;;;;;;;11.01;87.11;100293.57;1697583;83;20923;-59
2022/09/01 03:51:05;;;;;;;1.62;0.45;;;;;;;11.01;87.41;100296.18;1699550;83;20975;-60
2022/09/01 03:53:34;;;;;;;1.52;0.50;;;;;;;11.02;87.38;100288.76;1683495;84;20997;-59
2022/09/01 03:56:03;;;;;;;1.87;0.30;;;;;;;11.03;87.49;100295.21;1696373;82;20966;-60
2022/09/01 03:58:29;;;;;;;2.33;0.50;;;;;;;11.01;87.47;100295.75;1698900;82;21476;-59
2022/09/01 04:01:00;;;;;;;0.47;0.30;;;;;;;11.02;87.51;100297.91;1704412;82;20878;-60
2022/09/01 04:03:31;;;;;;;2.35;0.40;;;;;;;11.04;87.55;100301.31;1704923;83;21488;-59
2022/09/01 04:06:00;;;;;;;0.47;0.40;;;;;;;11.05;87.67;100291.24;1711104;82;20914;-60
2022/09/01 04:08:29;;;;;;;2.47;0.72;;;;;;;11.09;87.67;100283.66;1708948;83;21726;-59
2022/09/01 04:11:01;;;;;;;2.20;0.78;;;;;;;11.10;87.75;100286.69;1661366;84;21059;-59
2022/09/01 04:13:33;;;;;;;2.52;1.00;;;;;;;11.10;87.70;100289.30;1690758;83;20899;-59
2022/09/01 04:16:00;;;;;;;2.30;0.80;;;;;;;11.10;87.68;100291.91;1698896;83;21001;-60
2022/09/01 04:18:26;;;;;;;1.52;0.57;;;;;;;11.12;87.78;100287.48;1715847;81;21464;-59
2022/09/01 04:20:58;;;;;;;0.85;0.57;;;;;;;11.16;87.93;100285.13;1690660;83;20991;-60
2022/09/01 04:23:35;;;;;;;2.22;0.40;;;;;;;11.22;87.87;100278.34;1689607;83;21607;-59
2022/09/01 04:26:10;;;;;;;2.22;0.60;;;;;;;11.23;87.89;100285.28;1680420;84;20958;-61
2022/09/01 04:28:48;;;;;;;2.08;0.70;;;;;;;11.25;87.93;100283.44;1689844;82;21523;-60
2022/09/01 04:31:18;;;;;;;1.85;0.50;;;;;;;11.30;87.97;100283.26;1684392;84;20993;-61
2022/09/01 04:33:48;;;;;;;1.80;0.60;;;;;;;11.35;88.01;100271.70;1705589;83;21025;-60
2022/09/01 04:36:26;;;;;;;0.80;0.50;;;;;;;11.48;88.13;100263.33;1687531;83;21117;-60
2022/09/01 04:38:54;;;;;;;;;;;;;;;11.60;88.21;100262.36;1705924;83;20930;-61
2022/09/01 04:41:25;;;;;;;0.80;0.47;;;;;;;12.31;90.01;100264.03;1712399;83;20120;-60
2022/09/01 04:43:56;;;;;;;1.52;0.70;;;;;;;12.31;90.01;100264.03;1709702;82;21001;-62
2022/09/01 04:46:27;;;;;;;2.87;0.62;;;;;;;13.94;91.38;100258.69;1698601;83;21001;-62
2022/09/01 04:48:54;;;;;;;3.00;0.60;;;;;;;15.44;89.54;100262.66;1705562;83;21101;-62
2022/09/01 04:51:23;;;;;;;0.78;0.60;;;;;;;16.50;87.98;100256.23;1684392;84;20968;-62
2022/09/01 04:53:50;;;;;;;0.35;0.30;;;;;;;17.62;87.18;100262.11;1683525;84;21445;-63
2022/09/01 04:56:21;;;;;;;3.00;0.50;;;;;;;18.72;87.07;100261.45;1685976;83;21025;-61
2022/09/01 04:58:50;;;;;;;3.58;0.62;;;;;;;19.70;85.75;100259.48;1681174;84;20942;-62
2022/09/01 05:01:21;;;;;;;1.98;0.53;;;;;;;20.49;85.12;100256.83;1706536;83;21258;-62
2022/09/01 05:03:57;;;;;;;1.17;0.60;;;;;;;21.16;84.73;100257.16;1679889;83;20927;-63
2022/09/01 05:06:20;;;;;;;1.05;0.30;;;;;;;21.83;83.94;100259.95;1709831;83;21400;-63
2022/09/01 05:08:46;;;;;;;0.98;0.60;;;;;;;22.36;82.63;100262.45;1711742;83;20939;-64
2022/09/01 05:11:16;;;;;;;1.40;0.60;;;;;;;22.46;82.18;100264.66;1708616;83;26824;-64
2022/09/01 05:13:48;;;;;;;1.12;0.50;;;;;;;23.09;83.09;100262.19;1707131;83;21963;-61
2022/09/01 05:16:20;;;;;;;1.77;0.60;;;;;;;23.45;82.10;100264.13;1705557;83;21454;-62
2022/09/01 05:18:49;;;;;;;2.72;0.80;;;;;;;24.04;82.92;100258.68;1691597;83;20917;-62
2022/09/01 05:21:21;;;;;;;1.67;0.60;;;;;;;24.63;81.58;100248.58;1687661;83;20951;-62
2022/09/01 05:23:50;;;;;;;0.82;0.50;;;;;;;24.57;79.38;100254.03;1680455;84;20935;-63
2022/09/01 05:26:22;;;;;;;0.40;0.30;;;;;;;24.37;77.89;100256.41;1685963;83;21932;-62
2022/09/01 05:28:53;;;;;;;0.72;0.33;;;;;;;24.02;76.84;100261.48;1687143;84;20946;-62
2022/09/01 05:31:26;;;;;;;0.98;0.40;;;;;;;23.95;77.10;100256.90;1690450;83;21094;-63
2022/09/01 05:33:54;;;;;;;0.75;0.42;;;;;;;23.71;76.47;100259.55;1688699;84;21373;-61
2022/09/01 05:36:24;;;;;;;0.37;0.30;;;;;;;23.03;74.86;100265.41;1687258;84;20927;-61
2022/09/01 05:38:51;;;;;;;1.92;0.60;;;;;;;21.97;74.64;100266.24;1691255;84;21267;-61
2022/09/01 05:41:19;;;;;;;0.60;0.37;;;;;;;20.85;74.15;100272.11;1691043;84;20954;-61
2022/09/01 05:43:50;;;;;;;0.50;0.40;;;;;;;19.80;73.85;100273.72;1674039;84;20985;-61
2022/09/01 05:46:22;;;;;;;2.65;0.53;;;;;;;18.84;74.14;100273.81;1693846;84;21038;-61
2022/09/01 05:48:51;;;;;;;0.60;0.30;;;;;;;18.01;74.23;100275.73;1689466;83;20970;-60
2022/09/01 05:51:24;;;;;;;1.37;0.50;;;;;;;17.52;74.87;100275.08;1692631;84;21479;-60
2022/09/01 05:53:55;;;;;;;1.12;0.65;;;;;;;17.03;75.06;100277.02;1692807;83;21476;-60
2022/09/01 05:56:22;;;;;;;0.40;0.30;;;;;;;16.49;75.02;100286.16;1685626;83;20922;-61
2022/09/01 05:58:49;;;;;;;1.05;0.37;;;;;;;16.33;75.50;100284.49;1692139;84;20931;-61
2022/09/01 06:01:21;;;;;;;2.58;0.70;;;;;;;16.30;76.12;100287.33;1692707;84;20950;-61
2022/09/01 06:03:53;;;;;;;1.00;0.53;;;;;;;16.32;75.96;100289.37;1689382;84;21240;-61
2022/09/01 06:06:20;;;;;;;1.37;0.55;;;;;;;16.16;75.80;100284.70;1685778;84;20969;-61
2022/09/01 06:08:47;;;;;;;0.95;0.40;;;;;;;16.03;75.67;100280.64;1690243;84;20955;-61
2022/09/01 06:11:16;;;;;;;0.90;0.30;;;;;;;15.89;75.39;100281.47;1694464;82;20943;-61
2022/09/01 06:13:46;;;;;;;0.75;0.50;;;;;;;15.73;75.55;100280.69;1690711;84;20911;-61
2022/09/01 06:16:18;;;;;;;1.25;0.42;;;;;;;15.67;75.65;100282.34;1689523;83;21038;-61
2022/09/01 06:18:44;;;;;;;0.60;0.30;;;;;;;15.66;75.73;100270.98;1693508;83;21017;-61
2022/09/01 06:21:15;;;;;;;;;;;;;;;16.06;75.64;100273.02;1692668;83;20942;-61
2022/09/01 06:23:42;;;;;;;0.62;0.40;;;;;;;16.55;75.54;100274.77;1698507;83;20152;-61
2022/09/01 06:26:28;;;;;;;0.90;0.35;;;;;;;17.19;75.74;100281.64;1701616;83;20973;-61
2022/09/01 06:29:02;;;;;;;0.90;0.50;;;;;;;17.82;74.94;100274.82;1699159;83;21021;-61
2022/09/01 06:31:38;;;;;;;3.30;0.40;;;;;;;18.60;76.15;100278.20;1678627;84;20942;-61
2022/09/01 06:34:02;;;;;;;0.90;0.50;;;;;;;19.25;73.10;100276.55;1688368;83;20974;-61
2022/09/01 06:36:35;;;;;;;1.45;0.70;;;;;;;19.06;71.03;100278.87;1692520;83;21451;-61
2022/09/01 06:39:02;;;;;;;1.87;0.50;;;;;;;18.98;72.19;100278.94;1704237;83;21480;-62
2022/09/01 06:41:30;;;;;;;1.17;0.80;;;;;;;19.14;71.98;100279.14;1691842;83;21802;-61
2022/09/01 06:44:00;;;;;;;1.85;0.50;;;;;;;19.44;72.64;100288.77;1702443;83;21500;-61
2022/09/01 06:46:28;;;;;;;0.98;0.40;;;;;;;19.66;70.93;100281.86;1699795;82;20930;-62
2022/09/01 06:48:57;;;;;;;4.75;0.50;;;;;;;19.84;71.91;100283.11;1710074;83;21484;-61
2022/09/01 06:51:30;;;;;;;1.20;0.57;;;;;;;20.00;70.56;100289.89;1708524;83;20938;-61
2022/09/01 06:53:58;;;;;;;0.50;0.40;;;;;;;20.12;71.42;100288.92;1713482;83;21158;-61
2022/09/01 06:56:30;;;;;;;1.12;0.60;;;;;;;20.37;71.16;100281.70;1699705;83;20887;-61
2022/09/01 06:58:57;;;;;;;0.57;0.42;;;;;;;20.46;70.18;100286.26;1700782;83;20943;-62
2022/09/01 07:01:26;;;;;;;1.30;0.68;;;;;;;20.76;70.81;100294.45;1689282;84;20994;-62
2022/09/01 07:03:57;;;;;;;1.65;0.75;;;;;;;20.45;68.38;100290.73;1706916;83;20962;-62
2022/09/01 07:06:28;;;;;;;2.22;0.85;;;;;;;20.21;66.65;100290.84;1710301;83;21054;-62
2022/09/01 07:08:58;;;;;;;1.50;0.65;;;;;;;19.86;67.18;100291.79;1693196;84;20883;-61
2022/09/01 07:11:29;;;;;;;1.10;0.50;;;;;;;19.70;65.73;100292.59;1688379;83;20950;-61
2022/09/01 07:14:04;;;;;;;2.33;0.68;;;;;;;19.34;67.18;100293.05;1694316;84;21912;-61
2022/09/01 07:16:33;;;;;;;2.98;0.75;;;;;;;19.22;68.14;100288.69;1680321;84;20971;-61
2022/09/01 07:19:01;;;;;;;0.95;0.50;;;;;;;19.23;68.58;100300.95;1689261;84;21364;-61
2022/09/01 07:21:30;;;;;;;0.82;0.60;;;;;;;19.20;68.74;100302.51;1704339;83;20946;-61
2022/09/01 07:24:00;;;;;;;2.40;0.60;;;;;;;19.07;66.56;100307.01;1699357;84;20943;-62
2022/09/01 07:26:28;;;;;;;2.15;0.60;;;;;;;18.86;68.46;100304.14;1693764;83;21477;-61
2022/09/01 07:28:56;;;;;;;1.45;0.80;;;;;;;18.87;67.35;100307.98;1687443;83;20908;-62
2022/09/01 07:31:30;;;;;;;2.17;0.50;;;;;;;18.31;67.36;100309.72;1696332;84;21467;-61
2022/09/01 07:34:03;;;;;;;2.08;0.72;;;;;;;18.23;67.88;100309.89;1691513;83;20915;-61
2022/09/01 07:36:29;;;;;;;3.35;0.62;;;;;;;18.17;67.12;100315.61;1692848;83;21041;-61
2022/09/01 07:38:56;;;;;;;1.57;0.50;;;;;;;18.20;67.98;100302.17;1690557;82;21010;-62
2022/09/01 07:41:25;;;;;;;1.05;0.53;;;;;;;18.21;67.37;100311.81;1680777;84;21524;-62
2022/09/01 07:43:55;;;;;;;0.62;0.40;;;;;;;17.93;66.01;100303.16;1713137;83;21189;-61
2022/09/01 07:46:24;;;;;;;2.12;0.70;;;;;;;17.57;66.52;100307.30;1690091;83;20915;-61
2022/09/01 07:48:55;;;;;;;2.60;0.70;;;;;;;17.50;67.36;100312.61;1694373;83;21570;-61
2022/09/01 07:51:24;;;;;;;1.62;0.60;;;;;;;17.46;66.21;100313.77;1690137;83;21014;-61
2022/09/01 07:53:51;;;;;;;1.05;0.55;;;;;;;17.55;66.45;100311.83;1671323;84;20951;-62
2022/09/01 07:56:21;;;;;;;1.80;0.55;;;;;;;17.78;66.08;100310.30;1697535;82;21052;-60
2022/09/01 07:58:50;;;;;;;1.72;0.75;;;;;;;18.03;66.76;100317.40;1679650;84;20939;-61
2022/09/01 08:01:26;;;;;;;0.68;0.60;;;;;;;18.21;65.75;100317.10;1692279;84;20951;-62
2022/09/01 08:03:57;;;;;;;1.15;0.70;;;;;;;18.10;66.12;100312.56;1696777;83;21464;-61
2022/09/01 08:06:27;;;;;;;1.15;0.40;;;;;;;17.64;64.93;100309.91;1714116;82;20967;-62
2022/09/01 08:08:56;;;;;;;3.70;0.50;;;;;;;17.39;65.33;100313.79;1689042;84;21702;-61
2022/09/01 08:11:29;;;;;;;1.35;0.50;;;;;;;17.13;65.69;100308.44;1689985;84;20958;-61
2022/09/01 08:13:58;;;;;;;0.70;0.40;;;;;;;16.77;65.34;100309.86;1693481;84;20983;-61
2022/09/01 08:16:28;;;;;;;1.52;0.50;;;;;;;16.46;65.54;100311.39;1706443;83;20922;-61
2022/09/01 08:18:55;;;;;;;0.88;0.50;;;;;;;16.01;65.25;100320.70;1689374;83;20887;-62
2022/09/01 08:21:23;;;;;;;1.05;0.40;;;;;;;15.76;65.20;100325.27;1715327;83;21531;-61
2022/09/01 08:23:52;;;;;;;1.10;0.40;;;;;;;15.45;65.41;100333.61;1687670;84;21476;-62
2022/09/01 08:26:23;;;;;;;2.37;0.57;;;;;;;15.22;65.77;100330.14;1677013;85;20972;-61
2022/09/01 08:28:49;;;;;;;1.07;0.70;;;;;;;15.14;66.37;100337.62;1686484;83;20983;-61
2022/09/01 08:31:18;;;;;;;1.90;0.45;;;;;;;15.43;66.54;100333.31;1705521;83;21461;-62
2022/09/01 08:33:47;;;;;;;1.35;0.60;;;;;;;15.92;67.05;100327.00;1671938;83;21480;-61
2022/09/01 08:36:16;;;;;;;1.02;0.40;;;;;;;16.22;65.70;100321.67;1700500;83;20997;-61
2022/09/01 08:38:43;;;;;;;1.00;0.50;;;;;;;16.26;65.63;100314.78;1703172;83;20950;-61
2022/09/01 08:41:37;;;;;;;1.40;0.40;;;;;;;16.48;66.29;100318.73;1700772;83;21495;-61
2022/09/01 08:44:27;;;;;;;0.37;0.30;;;;;;;16.96;66.40;100324.52;1706107;82;20899;-61
2022/09/01 08:47:08;;;;;;;2.15;0.40;;;;;;;17.54;63.96;100315.42;1695065;84;21869;-61
2022/09/01 08:49:37;;;;;;;0.70;0.47;;;;;;;17.66;63.17;100325.16;1691224;84;20927;-62
2022/09/01 08:52:24;;;;;;;1.85;0.47;;;;;;;17.55;60.71;100321.06;1717537;83;21002;-62
2022/09/01 08:55:05;;;;;;;0.40;0.25;;;;;;;17.61;61.58;100308.77;1711259;82;20911;-62
2022/09/01 08:57:39;;;;;;;2.52;0.40;;;;;;;17.58;60.01;100319.54;1692632;84;20928;-60
2022/09/01 09:00:11;;;;;;;0.75;0.40;;;;;;;17.23;60.19;100328.02;1700685;83;21112;-61
2022/09/01 09:03:21;;;;;;;1.45;0.55;;;;;;;16.75;60.49;100339.42;1708670;82;21082;-61
2022/09/01 09:06:09;;;;;;;1.05;0.78;;;;;;;16.38;60.48;100341.33;1697851;83;21551;-61
2022/09/01 09:08:57;;;;;;;1.67;0.80;;;;;;;16.05;61.58;100335.87;1697749;83;20967;-60
2022/09/01 09:11:55;;;;;;;1.27;0.70;;;;;;;15.93;61.63;100329.53;1686774;84;20993;-60
2022/09/01 09:14:35;;;;;;;0.90;0.50;;;;;;;16.34;62.49;100328.34;1699583;83;21075;-61
2022/09/01 09:17:03;;;;;;;0.45;0.20;;;;;;;17.05;61.19;100326.55;1705768;83;20994;-61
2022/09/01 09:19:34;;;;;;;1.42;0.40;;;;;;;17.44;61.62;100327.54;1695014;84;20915;-61
2022/09/01 09:22:13;;;;;;;0.90;0.37;;;;;;;17.52;59.37;100325.23;1689843;84;20990;-61
2022/09/01 09:24:54;;;;;;;1.47;0.37;;;;;;;17.35;59.83;100314.95;1687959;84;21524;-61
2022/09/01 09:27:37;;;;;;;0.95;0.40;;;;;;;17.44;61.16;100320.45;1713917;83;21499;-61
2022/09/01 09:30:10;;;;;;;2.12;0.62;;;;;;;17.40;60.59;100320.78;1707505;83;20941;-60
2022/09/01 09:33:09;;;;;;;1.62;0.57;;;;;;;17.00;59.83;100333.95;1688391;84;20915;-60
2022/09/01 09:35:41;;;;;;;1.35;0.62;;;;;;;16.45;59.79;100321.56;1710474;83;20943;-61
2022/09/01 09:38:27;;;;;;;0.72;0.40;;;;;;;16.15;60.40;100325.14;1689683;83;20989;-61
2022/09/01 09:41:07;;;;;;;2.15;0.57;;;;;;;15.93;60.84;100319.47;1689945;83;21130;-62
2022/09/01 09:43:39;;;;;;;0.80;0.50;;;;;;;16.17;61.74;100310.09;1704011;83;20974;-61
2022/09/01 09:46:39;;;;;;;1.45;0.40;;;;;;;16.50;61.17;100320.34;1715071;82;20973;-61
2022/09/01 09:49:28;;;;;;;1.47;0.40;;;;;;;16.69;59.25;100306.86;1695527;82;20987;-61
2022/09/01 09:52:09;;;;;;;0.82;0.40;;;;;;;16.94;59.75;100302.66;1711013;83;20919;-61
2022/09/01 09:55:20;;;;;;;0.65;0.40;;;;;;;17.31;60.71;100302.89;1691714;83;21067;-61
2022/09/01 09:57:48;;;;;;;1.20;0.40;;;;;;;17.55;59.26;100308.34;1694801;83;20938;-60
2022/09/01 10:00:29;;;;;;;0.98;0.37;;;;;;;17.55;58.69;100317.11;1692583;83;20938;-61
2022/09/01 10:03:06;;;;;;;1.17;0.30;;;;;;;17.28;56.93;100304.42;1683425;84;20934;-61
2022/09/01 10:05:52;;;;;;;0.90;0.50;;;;;;;16.96;57.80;100312.64;1700744;83;20879;-61
2022/09/01 10:08:43;;;;;;;0.50;0.25;;;;;;;17.10;58.39;100319.19;1698990;83;21038;-60
2022/09/01 10:11:07;;;;;;;0.88;0.30;;;;;;;17.41;57.06;100314.55;1700973;83;20910;-60
2022/09/01 10:13:35;;;;;;;0.53;0.28;;;;;;;17.67;53.70;100329.51;1704295;82;20890;-61
2022/09/01 10:16:16;;;;;;;1.22;0.37;;;;;;;17.64;55.76;100327.08;1701366;83;20957;-60
2022/09/01 10:18:45;;;;;;;0.75;0.40;;;;;;;16.92;56.73;100338.86;1704414;82;21018;-61
2022/09/01 10:21:36;;;;;;;0.80;0.20;;;;;;;16.29;58.01;100346.22;1703257;83;21656;-61
2022/09/01 10:24:40;;;;;;;0.78;0.33;;;;;;;15.97;59.14;100336.80;1704707;82;20917;-60
2022/09/01 10:27:22;;;;;;;0.75;0.25;;;;;;;15.82;59.10;100338.09;1697987;83;20894;-61
2022/09/01 10:30:09;;;;;;;0.33;0.20;;;;;;;15.85;59.70;100340.54;1709984;83;21093;-61
2022/09/01 10:32:56;;;;;;;1.42;0.40;;;;;;;16.10;59.94;100337.73;1693615;83;20938;-61
2022/09/01 10:35:28;;;;;;;0.30;0.30;;;;;;;16.31;60.24;100337.75;1702661;83;21045;-61
2022/09/01 10:38:08;;;;;;;0.98;0.30;;;;;;;16.38;59.96;100332.10;1691689;83;21053;-60
2022/09/01 10:40:40;;;;;;;1.30;0.30;;;;;;;16.56;61.06;100329.66;1680156;83;20922;-60
2022/09/01 10:43:27;;;;;;;0.57;0.30;;;;;;;16.83;61.38;100331.52;1677507;85;20982;-61
2022/09/01 10:45:54;;;;;;;0.47;0.25;;;;;;;16.88;61.10;100339.98;1717823;83;21539;-60
2022/09/01 10:48:25;;;;;;;;;;;;;;;16.82;60.93;100335.11;1682958;84;21833;-60
2022/09/01 10:50:55;;;;;;;0.40;0.25;;;;;;;16.93;61.91;100335.27;1702858;82;20086;-60
2022/09/01 10:53:41;;;;;;;1.52;0.40;;;;;;;16.93;57.66;100335.27;1699250;83;20973;-60
2022/09/01 10:56:38;;;;;;;0.62;0.40;;;;;;;16.86;61.14;100327.36;1696990;83;21031;-60
2022/09/01 10:59:19;;;;;;;1.02;0.40;;;;;;;17.12;61.88;100326.55;1688242;84;20899;-60
2022/09/01 11:01:51;;;;;;;1.05;0.30;;;;;;;17.30;61.46;100331.08;1682689;84;21816;-61
2022/09/01 11:04:29;;;;;;;0.65;0.20;;;;;;;17.19;60.87;100338.37;1685781;84;21008;-61
2022/09/01 11:07:07;;;;;;;0.88;0.40;;;;;;;17.33;60.88;100340.59;1664879;85;20985;-61
2022/09/01 11:10:06;;;;;;;0.57;0.40;;;;;;;17.39;60.10;100336.23;1657761;84;20975;-61
2022/09/01 11:13:01;;;;;;;1.65;0.50;;;;;;;17.28;60.76;100334.77;1661514;85;21031;-61
2022/09/01 11:15:41;;;;;;;0.95;0.30;;;;;;;17.49;61.73;100337.33;1673517;85;21979;-60
2022/09/01 11:18:25;;;;;;;0.33;0.30;;;;;;;17.85;61.96;100322.16;1676075;84;21031;-61
2022/09/01 11:20:52;;;;;;;0.80;0.30;;;;;;;17.83;59.40;100323.20;1673742;84;21009;-61
2022/09/01 11:23:28;;;;;;;0.72;0.35;;;;;;;17.61;59.09;100337.81;1676702;85;20978;-60
2022/09/01 11:26:04;;;;;;;0.50;0.30;;;;;;;17.30;57.99;100330.24;1675112;84;20983;-61
2022/09/01 11:28:37;;;;;;;0.40;0.30;;;;;;;17.02;58.91;100329.88;1686027;83;22057;-61
2022/09/01 11:31:09;;;;;;;1.65;0.40;;;;;;;17.04;59.86;100316.96;1677379;84;21002;-61
2022/09/01 11:34:10;;;;;;;0.42;0.30;;;;;;;17.17;57.44;100338.97;1676803;84;21006;-60
2022/09/01 11:36:51;;;;;;;0.40;0.30;;;;;;;16.92;56.21;100341.50;1656051;84;20918;-61
2022/09/01 11:39:28;;;;;;;1.95;0.40;;;;;;;16.71;57.04;100333.95;1663797;84;20904;-61
2022/09/01 11:42:03;;;;;;;0.88;0.20;;;;;;;16.84;57.27;100331.43;1657584;85;21110;-61
2022/09/01 11:44:59;;;;;;;1.05;0.50;;;;;;;17.18;56.82;100324.82;1655708;85;20942;-61
2022/09/01 11:47:40;;;;;;;0.40;0.20;;;;;;;17.39;57.59;100319.07;1655365;85;20954;-61
2022/09/01 11:50:31;;;;;;;0.78;0.40;;;;;;;17.56;56.76;100326.74;1657460;85;20965;-61
2022/09/01 11:53:02;;;;;;;1.47;0.20;;;;;;;17.36;53.35;100343.88;1676915;84;20968;-61
2022/09/01 11:55:34;;;;;;;0.65;0.20;;;;;;;17.13;50.96;100334.83;1671333;84;21747;-61